Hyannis, MA

11:50 AM EDT on September 01, 2014 (GMT -0400)
Hyannis Woods | Change Station
CLOSE
Current Station
Personal Weather Station
Location: Barnstable, MA
Elevation: 66 ft
Nearby Weather Stations

Elev 66 ft 41.66 °N, 70.31 °W | Updated 20 seconds ago

Haze
Haze
77.7 °F
Feels Like 80 °F
N
2.7
Wind Variable Wind from ESE

Today
High -- | Low -- °F
--% Chance of Precip.
Yesterday
High -- | Low -- °F
Precip. -- in
6:07 AM 7:14 PM
Waxing Crescent, 42% visible
Pressure 29.99 in
Visibility 5.0 miles
Clouds Mostly Cloudy 600 ft
Mostly Cloudy 3700 ft
Heat Index 80 °F
Dew Point 72 °F
Humidity 84%
Rainfall 0.05 in
Snow Depth Not available.
UV 4 out of 12
Pollen 4.30 out of 12
Air Quality Not available.
Flu Activity Not available.
METAR KHYA 011456Z 22009KT 5SM HZ BKN006 BKN037 25/22 A2998 RMK AO2 SLP153 T02500222 56004

More Conditions Fewer Conditions

Pressure 29.99 in
Visibility 5.0 miles
Clouds Mostly Cloudy 600 ft
Mostly Cloudy 3700 ft
Heat Index 80 °F
Dew Point 72 °F
Humidity 84%
Rainfall 0.05 in
Snow Depth Not available.
UV 4 out of 12
Pollen 4.30 out of 12
Air Quality Not available.
Flu Activity Not available.
METAR KHYA 011456Z 22009KT 5SM HZ BKN006 BKN037 25/22 A2998 RMK AO2 SLP153 T02500222 56004

More Conditions Fewer Conditions

10-Day Weather Forecast

Almanac

Astronomy

Sep. 01, 2014 Rise Set
Actual Time 6:07 AM EDT 7:14 PM EDT
Civil Twilight 5:38 AM EDT 7:42 PM EDT
Nautical Twilight 5:04 AM EDT 8:16 PM EDT
Astronomical Twilight 4:28 AM EDT 8:52 PM EDT
Moon 12:55 PM EDT 11:07 PM EDT
Length of Visible Light 14h 04m
Length of Day
13h 07m
Tomorrow will be 2m 40s shorter.
Waxing Crescent, 42% of the Moon is Illuminated
Today
Waxing Crescent
Sep 2
First Quarter
Sep 8
Full
Sep 15
Last Quarter
Sep 24
New

Today's Extremes

State Highs State Lows

Community

WunderPhotos

Upload Photos

1,749,276 photos uploaded!

Nearby

Air Quality

  Air Quality AQ Index Pollutant
Yesterday Good
OZONE
Monday Good
PM2.5
Monday Good
OZONE
Tuesday Moderate
PM2.5
Tuesday Good
OZONE

Snow Depth

Station Depth Elevation
No new snow has been reported.

Earthquake Activity

City Distance Mag. Time & Date
No recent earthquake activity has been reported nearby.
Minimum magnitude displayed is 2.5.

Coastal Water Temperatures

Place Temperature
Nantucket Island, MA 72.0 °F
Woods Hole, MA 71.1 °F
Fall River, MA 73.9 °F
Boston, MA 68.0 °F

Nearby Weather Stations